Santa Rosa Valley, California
Current Conditions -  °F | °C
As of 9:55 PM on Monday 26 Jan 2015 (Local Time) from KCMA Reporting Station
Overcast Overcast  
Wind Chill: 58°   Ceiling: 9000
Heat Index: 58°   Visibility: 10mi
Dew Point: 54°   Wind: 5mph
Humidity: 87%   Direction: 70°ENE
Pressure: 30.09"   Gusts: NA
Location:  34.1954°N, 119.003°W
Report Text: KCMA 270555Z 07004KT 10SM FEW055 OVC090 14/12 A3009 RMK AO2 RAE36 SLP196 P0002 60005 T01440122 10211 20144 51011
Loading
Personal Weather Stations






























Interactive Weather Map New forecast layout! Learn more

10-Day Weather Forecast

Advertisements
Track Severe Weather on mobile